sensor_id;sensor_type;location;lat;lon;timestamp;P1;durP1;ratioP1;P2;durP2;ratioP2
66298;SDS011;53098;47.658;8.578;2022-09-09T00:00:37;6.85;;;1.00;;
66298;SDS011;53098;47.658;8.578;2022-09-09T00:03:11;10.63;;;1.70;;
66298;SDS011;53098;47.658;8.578;2022-09-09T00:05:40;6.70;;;1.17;;
66298;SDS011;53098;47.658;8.578;2022-09-09T00:08:07;10.02;;;1.10;;
66298;SDS011;53098;47.658;8.578;2022-09-09T00:10:38;5.63;;;0.98;;
66298;SDS011;53098;47.658;8.578;2022-09-09T00:16:03;3.65;;;1.23;;
66298;SDS011;53098;47.658;8.578;2022-09-09T00:21:07;6.07;;;1.15;;
66298;SDS011;53098;47.658;8.578;2022-09-09T00:23:39;6.47;;;1.27;;
66298;SDS011;53098;47.658;8.578;2022-09-09T00:28:30;10.77;;;1.20;;
66298;SDS011;53098;47.658;8.578;2022-09-09T00:30:59;3.70;;;0.90;;
66298;SDS011;53098;47.658;8.578;2022-09-09T00:33:26;5.85;;;1.20;;
66298;SDS011;53098;47.658;8.578;2022-09-09T00:35:54;3.28;;;1.08;;
66298;SDS011;53098;47.658;8.578;2022-09-09T00:43:26;4.93;;;0.80;;
66298;SDS011;53098;47.658;8.578;2022-09-09T00:48:17;10.63;;;1.20;;
66298;SDS011;53098;47.658;8.578;2022-09-09T00:56:18;6.95;;;1.30;;
66298;SDS011;53098;47.658;8.578;2022-09-09T00:58:48;6.55;;;1.20;;
66298;SDS011;53098;47.658;8.578;2022-09-09T01:03:49;5.53;;;1.37;;
66298;SDS011;53098;47.658;8.578;2022-09-09T01:06:25;7.78;;;1.17;;
66298;SDS011;53098;47.658;8.578;2022-09-09T01:11:37;4.30;;;1.10;;
66298;SDS011;53098;47.658;8.578;2022-09-09T01:14:11;4.53;;;1.20;;
66298;SDS011;53098;47.658;8.578;2022-09-09T01:16:38;5.68;;;1.00;;
66298;SDS011;53098;47.658;8.578;2022-09-09T01:19:05;4.95;;;1.15;;
66298;SDS011;53098;47.658;8.578;2022-09-09T01:21:55;7.13;;;1.40;;
66298;SDS011;53098;47.658;8.578;2022-09-09T01:26:49;8.40;;;1.03;;
66298;SDS011;53098;47.658;8.578;2022-09-09T01:29:16;4.53;;;1.20;;
66298;SDS011;53098;47.658;8.578;2022-09-09T01:31:51;7.75;;;1.67;;
66298;SDS011;53098;47.658;8.578;2022-09-09T01:34:17;5.45;;;1.40;;
66298;SDS011;53098;47.658;8.578;2022-09-09T01:36:59;7.23;;;1.37;;
66298;SDS011;53098;47.658;8.578;2022-09-09T01:39:25;5.43;;;1.00;;
66298;SDS011;53098;47.658;8.578;2022-09-09T01:41:51;5.53;;;1.30;;
66298;SDS011;53098;47.658;8.578;2022-09-09T01:44:16;2.33;;;1.02;;
66298;SDS011;53098;47.658;8.578;2022-09-09T01:46:42;6.78;;;1.10;;
66298;SDS011;53098;47.658;8.578;2022-09-09T01:49:07;6.57;;;1.60;;
66298;SDS011;53098;47.658;8.578;2022-09-09T01:51:33;4.80;;;1.13;;
66298;SDS011;53098;47.658;8.578;2022-09-09T01:53:59;2.40;;;1.02;;
66298;SDS011;53098;47.658;8.578;2022-09-09T02:01:49;4.82;;;1.42;;
66298;SDS011;53098;47.658;8.578;2022-09-09T02:04:21;4.85;;;0.95;;
66298;SDS011;53098;47.658;8.578;2022-09-09T02:06:48;6.68;;;1.33;;
66298;SDS011;53098;47.658;8.578;2022-09-09T02:09:14;8.27;;;1.33;;
66298;SDS011;53098;47.658;8.578;2022-09-09T02:11:41;5.45;;;1.08;;
66298;SDS011;53098;47.658;8.578;2022-09-09T02:14:10;4.88;;;1.02;;
66298;SDS011;53098;47.658;8.578;2022-09-09T02:16:39;11.00;;;1.17;;
66298;SDS011;53098;47.658;8.578;2022-09-09T02:19:09;5.35;;;1.02;;
66298;SDS011;53098;47.658;8.578;2022-09-09T02:21:35;8.57;;;1.23;;
66298;SDS011;53098;47.658;8.578;2022-09-09T02:24:02;6.67;;;1.10;;
66298;SDS011;53098;47.658;8.578;2022-09-09T02:26:29;5.32;;;1.00;;
66298;SDS011;53098;47.658;8.578;2022-09-09T02:28:56;8.20;;;1.33;;
66298;SDS011;53098;47.658;8.578;2022-09-09T02:31:22;4.80;;;1.20;;
66298;SDS011;53098;47.658;8.578;2022-09-09T02:33:54;2.72;;;0.98;;
66298;SDS011;53098;47.658;8.578;2022-09-09T02:36:20;3.65;;;1.17;;
66298;SDS011;53098;47.658;8.578;2022-09-09T02:38:48;6.93;;;1.15;;
66298;SDS011;53098;47.658;8.578;2022-09-09T02:41:13;2.75;;;0.90;;
66298;SDS011;53098;47.658;8.578;2022-09-09T02:43:41;5.13;;;1.10;;
66298;SDS011;53098;47.658;8.578;2022-09-09T02:48:54;3.45;;;0.90;;
66298;SDS011;53098;47.658;8.578;2022-09-09T02:56:25;8.68;;;1.17;;
66298;SDS011;53098;47.658;8.578;2022-09-09T02:58:52;11.30;;;1.20;;
66298;SDS011;53098;47.658;8.578;2022-09-09T03:01:17;3.93;;;1.00;;
66298;SDS011;53098;47.658;8.578;2022-09-09T03:03:42;8.27;;;0.97;;
66298;SDS011;53098;47.658;8.578;2022-09-09T03:06:08;8.98;;;0.98;;
66298;SDS011;53098;47.658;8.578;2022-09-09T03:08:33;2.23;;;0.90;;
66298;SDS011;53098;47.658;8.578;2022-09-09T03:10:59;5.30;;;1.30;;
66298;SDS011;53098;47.658;8.578;2022-09-09T03:13:24;3.67;;;1.10;;
66298;SDS011;53098;47.658;8.578;2022-09-09T03:15:49;6.40;;;1.00;;
66298;SDS011;53098;47.658;8.578;2022-09-09T03:18:15;9.33;;;1.40;;
66298;SDS011;53098;47.658;8.578;2022-09-09T03:20:40;5.27;;;1.03;;
66298;SDS011;53098;47.658;8.578;2022-09-09T03:23:05;5.20;;;0.90;;
66298;SDS011;53098;47.658;8.578;2022-09-09T03:25:30;4.50;;;0.97;;
66298;SDS011;53098;47.658;8.578;2022-09-09T03:27:56;5.75;;;1.25;;
66298;SDS011;53098;47.658;8.578;2022-09-09T03:30:22;3.35;;;0.98;;
66298;SDS011;53098;47.658;8.578;2022-09-09T03:32:48;4.22;;;1.20;;
66298;SDS011;53098;47.658;8.578;2022-09-09T03:35:13;4.37;;;1.07;;
66298;SDS011;53098;47.658;8.578;2022-09-09T03:37:38;5.70;;;1.10;;
66298;SDS011;53098;47.658;8.578;2022-09-09T03:40:04;7.93;;;1.40;;
66298;SDS011;53098;47.658;8.578;2022-09-09T03:42:29;7.88;;;1.33;;
66298;SDS011;53098;47.658;8.578;2022-09-09T03:44:54;9.90;;;1.77;;
66298;SDS011;53098;47.658;8.578;2022-09-09T03:47:20;6.17;;;1.80;;
66298;SDS011;53098;47.658;8.578;2022-09-09T03:49:45;8.20;;;1.10;;
66298;SDS011;53098;47.658;8.578;2022-09-09T03:52:11;9.27;;;0.90;;
66298;SDS011;53098;47.658;8.578;2022-09-09T03:54:36;2.57;;;1.00;;
66298;SDS011;53098;47.658;8.578;2022-09-09T03:57:02;6.03;;;1.10;;
66298;SDS011;53098;47.658;8.578;2022-09-09T03:59:27;5.53;;;1.10;;
66298;SDS011;53098;47.658;8.578;2022-09-09T04:01:53;5.25;;;1.40;;
66298;SDS011;53098;47.658;8.578;2022-09-09T04:04:18;9.05;;;1.30;;
66298;SDS011;53098;47.658;8.578;2022-09-09T04:06:43;4.70;;;1.20;;
66298;SDS011;53098;47.658;8.578;2022-09-09T04:09:08;2.77;;;0.80;;
66298;SDS011;53098;47.658;8.578;2022-09-09T04:11:34;9.83;;;1.30;;
66298;SDS011;53098;47.658;8.578;2022-09-09T04:13:59;4.17;;;0.93;;
66298;SDS011;53098;47.658;8.578;2022-09-09T04:16:24;6.00;;;1.40;;
66298;SDS011;53098;47.658;8.578;2022-09-09T04:18:50;3.38;;;0.85;;
66298;SDS011;53098;47.658;8.578;2022-09-09T04:21:15;4.57;;;1.10;;
66298;SDS011;53098;47.658;8.578;2022-09-09T04:23:40;4.65;;;1.10;;
66298;SDS011;53098;47.658;8.578;2022-09-09T04:26:06;6.07;;;0.93;;
66298;SDS011;53098;47.658;8.578;2022-09-09T04:28:32;6.15;;;1.40;;
66298;SDS011;53098;47.658;8.578;2022-09-09T04:31:03;7.53;;;1.13;;
66298;SDS011;53098;47.658;8.578;2022-09-09T04:33:29;3.88;;;0.73;;
66298;SDS011;53098;47.658;8.578;2022-09-09T04:35:54;5.67;;;1.20;;
66298;SDS011;53098;47.658;8.578;2022-09-09T04:38:19;3.13;;;0.90;;
66298;SDS011;53098;47.658;8.578;2022-09-09T04:40:49;6.65;;;1.00;;
66298;SDS011;53098;47.658;8.578;2022-09-09T04:43:14;7.18;;;1.73;;
66298;SDS011;53098;47.658;8.578;2022-09-09T04:45:40;5.07;;;1.05;;
66298;SDS011;53098;47.658;8.578;2022-09-09T04:48:06;19.27;;;1.50;;
66298;SDS011;53098;47.658;8.578;2022-09-09T04:50:31;4.28;;;1.20;;
66298;SDS011;53098;47.658;8.578;2022-09-09T04:52:56;8.10;;;1.00;;
66298;SDS011;53098;47.658;8.578;2022-09-09T04:55:24;2.58;;;0.98;;
66298;SDS011;53098;47.658;8.578;2022-09-09T04:57:49;6.35;;;1.23;;
66298;SDS011;53098;47.658;8.578;2022-09-09T05:00:15;8.23;;;1.43;;
66298;SDS011;53098;47.658;8.578;2022-09-09T05:02:40;5.50;;;1.00;;
66298;SDS011;53098;47.658;8.578;2022-09-09T05:05:06;5.13;;;1.17;;
66298;SDS011;53098;47.658;8.578;2022-09-09T05:07:31;4.25;;;1.10;;
66298;SDS011;53098;47.658;8.578;2022-09-09T05:09:56;6.30;;;1.00;;
66298;SDS011;53098;47.658;8.578;2022-09-09T05:12:22;3.90;;;1.20;;
66298;SDS011;53098;47.658;8.578;2022-09-09T05:14:47;6.07;;;1.25;;
66298;SDS011;53098;47.658;8.578;2022-09-09T05:17:12;4.40;;;0.90;;
66298;SDS011;53098;47.658;8.578;2022-09-09T05:19:38;5.03;;;1.03;;
66298;SDS011;53098;47.658;8.578;2022-09-09T05:22:03;4.07;;;0.90;;
66298;SDS011;53098;47.658;8.578;2022-09-09T05:24:28;11.77;;;1.33;;
66298;SDS011;53098;47.658;8.578;2022-09-09T05:26:54;2.30;;;0.80;;
66298;SDS011;53098;47.658;8.578;2022-09-09T05:29:19;6.50;;;1.10;;
66298;SDS011;53098;47.658;8.578;2022-09-09T05:31:45;5.30;;;1.10;;
66298;SDS011;53098;47.658;8.578;2022-09-09T05:34:10;6.70;;;1.13;;
66298;SDS011;53098;47.658;8.578;2022-09-09T05:36:35;4.78;;;1.17;;
66298;SDS011;53098;47.658;8.578;2022-09-09T05:39:01;3.45;;;1.00;;
66298;SDS011;53098;47.658;8.578;2022-09-09T05:41:28;4.47;;;0.98;;
66298;SDS011;53098;47.658;8.578;2022-09-09T05:43:53;5.37;;;1.10;;
66298;SDS011;53098;47.658;8.578;2022-09-09T05:46:20;6.82;;;1.30;;
66298;SDS011;53098;47.658;8.578;2022-09-09T05:48:46;4.15;;;0.90;;
66298;SDS011;53098;47.658;8.578;2022-09-09T05:51:12;6.40;;;1.05;;
66298;SDS011;53098;47.658;8.578;2022-09-09T05:53:38;4.53;;;1.02;;
66298;SDS011;53098;47.658;8.578;2022-09-09T05:56:08;5.57;;;1.25;;
66298;SDS011;53098;47.658;8.578;2022-09-09T05:58:34;5.53;;;0.95;;
66298;SDS011;53098;47.658;8.578;2022-09-09T06:01:19;5.10;;;1.23;;
66298;SDS011;53098;47.658;8.578;2022-09-09T06:03:45;3.72;;;1.10;;
66298;SDS011;53098;47.658;8.578;2022-09-09T06:06:11;4.28;;;1.20;;
66298;SDS011;53098;47.658;8.578;2022-09-09T06:08:38;4.57;;;1.02;;
66298;SDS011;53098;47.658;8.578;2022-09-09T06:11:04;3.35;;;1.10;;
66298;SDS011;53098;47.658;8.578;2022-09-09T06:13:30;4.03;;;1.25;;
66298;SDS011;53098;47.658;8.578;2022-09-09T06:15:56;7.00;;;1.20;;
66298;SDS011;53098;47.658;8.578;2022-09-09T06:18:21;7.78;;;1.60;;
66298;SDS011;53098;47.658;8.578;2022-09-09T06:23:25;6.65;;;1.63;;
66298;SDS011;53098;47.658;8.578;2022-09-09T06:25:50;5.10;;;1.30;;
66298;SDS011;53098;47.658;8.578;2022-09-09T06:28:16;4.45;;;1.20;;
66298;SDS011;53098;47.658;8.578;2022-09-09T06:30:41;5.68;;;1.30;;
66298;SDS011;53098;47.658;8.578;2022-09-09T06:33:07;4.53;;;1.40;;
66298;SDS011;53098;47.658;8.578;2022-09-09T06:35:32;5.32;;;1.50;;
66298;SDS011;53098;47.658;8.578;2022-09-09T06:37:57;8.10;;;1.50;;
66298;SDS011;53098;47.658;8.578;2022-09-09T06:40:22;3.90;;;1.50;;
66298;SDS011;53098;47.658;8.578;2022-09-09T06:42:48;4.97;;;1.33;;
66298;SDS011;53098;47.658;8.578;2022-09-09T06:45:13;5.73;;;1.40;;
66298;SDS011;53098;47.658;8.578;2022-09-09T06:47:38;4.40;;;1.20;;
66298;SDS011;53098;47.658;8.578;2022-09-09T06:50:04;2.37;;;1.00;;
66298;SDS011;53098;47.658;8.578;2022-09-09T06:52:29;4.93;;;1.10;;
66298;SDS011;53098;47.658;8.578;2022-09-09T06:54:54;2.90;;;1.10;;
66298;SDS011;53098;47.658;8.578;2022-09-09T06:57:20;3.70;;;1.20;;
66298;SDS011;53098;47.658;8.578;2022-09-09T06:59:45;3.42;;;0.95;;
66298;SDS011;53098;47.658;8.578;2022-09-09T07:02:10;5.33;;;1.13;;
66298;SDS011;53098;47.658;8.578;2022-09-09T07:04:36;3.93;;;1.00;;
66298;SDS011;53098;47.658;8.578;2022-09-09T07:07:01;4.80;;;1.20;;
66298;SDS011;53098;47.658;8.578;2022-09-09T07:09:26;6.33;;;1.10;;
66298;SDS011;53098;47.658;8.578;2022-09-09T07:11:51;5.07;;;1.07;;
66298;SDS011;53098;47.658;8.578;2022-09-09T07:14:17;4.83;;;1.10;;
66298;SDS011;53098;47.658;8.578;2022-09-09T07:16:45;2.75;;;0.75;;
66298;SDS011;53098;47.658;8.578;2022-09-09T07:19:11;2.60;;;0.70;;
66298;SDS011;53098;47.658;8.578;2022-09-09T07:21:37;1.98;;;1.00;;
66298;SDS011;53098;47.658;8.578;2022-09-09T07:24:02;2.42;;;0.80;;
66298;SDS011;53098;47.658;8.578;2022-09-09T07:26:29;6.75;;;1.15;;
66298;SDS011;53098;47.658;8.578;2022-09-09T07:28:54;2.65;;;0.80;;
66298;SDS011;53098;47.658;8.578;2022-09-09T07:31:21;2.47;;;0.90;;
66298;SDS011;53098;47.658;8.578;2022-09-09T07:33:46;4.03;;;0.80;;
66298;SDS011;53098;47.658;8.578;2022-09-09T07:36:13;5.78;;;0.95;;
66298;SDS011;53098;47.658;8.578;2022-09-09T07:38:39;3.80;;;0.95;;
66298;SDS011;53098;47.658;8.578;2022-09-09T07:41:05;3.00;;;0.70;;
66298;SDS011;53098;47.658;8.578;2022-09-09T07:43:31;2.40;;;0.80;;
66298;SDS011;53098;47.658;8.578;2022-09-09T07:45:57;2.25;;;0.82;;
66298;SDS011;53098;47.658;8.578;2022-09-09T07:48:22;2.78;;;0.80;;
66298;SDS011;53098;47.658;8.578;2022-09-09T07:50:48;3.17;;;0.73;;
66298;SDS011;53098;47.658;8.578;2022-09-09T07:53:13;4.20;;;0.83;;
66298;SDS011;53098;47.658;8.578;2022-09-09T07:55:38;2.33;;;0.77;;
66298;SDS011;53098;47.658;8.578;2022-09-09T07:58:03;4.37;;;0.83;;
66298;SDS011;53098;47.658;8.578;2022-09-09T08:00:29;5.82;;;1.20;;
66298;SDS011;53098;47.658;8.578;2022-09-09T08:02:55;3.80;;;1.10;;
66298;SDS011;53098;47.658;8.578;2022-09-09T08:05:20;4.53;;;1.00;;
66298;SDS011;53098;47.658;8.578;2022-09-09T08:07:45;3.88;;;1.05;;
66298;SDS011;53098;47.658;8.578;2022-09-09T08:10:11;2.75;;;1.00;;
66298;SDS011;53098;47.658;8.578;2022-09-09T08:12:37;2.17;;;0.90;;
66298;SDS011;53098;47.658;8.578;2022-09-09T08:15:02;3.17;;;0.82;;
66298;SDS011;53098;47.658;8.578;2022-09-09T08:17:27;4.88;;;1.00;;
66298;SDS011;53098;47.658;8.578;2022-09-09T08:19:53;3.45;;;0.75;;
66298;SDS011;53098;47.658;8.578;2022-09-09T08:22:18;3.00;;;1.02;;
66298;SDS011;53098;47.658;8.578;2022-09-09T08:24:44;5.05;;;1.23;;
66298;SDS011;53098;47.658;8.578;2022-09-09T08:27:09;4.03;;;0.70;;
66298;SDS011;53098;47.658;8.578;2022-09-09T08:29:35;3.53;;;0.80;;
66298;SDS011;53098;47.658;8.578;2022-09-09T08:32:01;8.23;;;1.10;;
66298;SDS011;53098;47.658;8.578;2022-09-09T08:34:26;4.22;;;0.90;;
66298;SDS011;53098;47.658;8.578;2022-09-09T08:36:52;5.30;;;1.10;;
66298;SDS011;53098;47.658;8.578;2022-09-09T08:39:19;3.63;;;0.82;;
66298;SDS011;53098;47.658;8.578;2022-09-09T08:44:15;3.70;;;1.00;;
66298;SDS011;53098;47.658;8.578;2022-09-09T08:51:44;7.10;;;1.13;;
66298;SDS011;53098;47.658;8.578;2022-09-09T08:54:09;5.55;;;1.30;;
66298;SDS011;53098;47.658;8.578;2022-09-09T08:56:35;5.97;;;1.00;;
66298;SDS011;53098;47.658;8.578;2022-09-09T08:59:01;3.50;;;1.02;;
66298;SDS011;53098;47.658;8.578;2022-09-09T09:06:42;4.75;;;0.93;;
66298;SDS011;53098;47.658;8.578;2022-09-09T09:11:47;4.97;;;1.25;;
66298;SDS011;53098;47.658;8.578;2022-09-09T09:14:23;3.67;;;0.90;;
66298;SDS011;53098;47.658;8.578;2022-09-09T09:19:21;4.78;;;1.05;;
66298;SDS011;53098;47.658;8.578;2022-09-09T09:21:54;3.67;;;0.93;;
66298;SDS011;53098;47.658;8.578;2022-09-09T09:27:07;6.05;;;0.77;;
66298;SDS011;53098;47.658;8.578;2022-09-09T09:29:37;7.57;;;1.15;;
66298;SDS011;53098;47.658;8.578;2022-09-09T09:32:03;5.22;;;0.80;;
66298;SDS011;53098;47.658;8.578;2022-09-09T09:34:29;7.63;;;1.33;;
66298;SDS011;53098;47.658;8.578;2022-09-09T09:36:58;4.03;;;0.65;;
66298;SDS011;53098;47.658;8.578;2022-09-09T09:39:25;5.25;;;1.05;;
66298;SDS011;53098;47.658;8.578;2022-09-09T09:41:51;3.75;;;1.00;;
66298;SDS011;53098;47.658;8.578;2022-09-09T09:44:30;4.78;;;0.80;;
66298;SDS011;53098;47.658;8.578;2022-09-09T09:47:11;4.57;;;0.77;;
66298;SDS011;53098;47.658;8.578;2022-09-09T09:49:37;3.58;;;0.73;;
66298;SDS011;53098;47.658;8.578;2022-09-09T09:52:03;6.70;;;0.88;;
66298;SDS011;53098;47.658;8.578;2022-09-09T09:54:29;8.35;;;1.15;;
66298;SDS011;53098;47.658;8.578;2022-09-09T09:56:55;4.82;;;1.08;;
66298;SDS011;53098;47.658;8.578;2022-09-09T10:01:53;6.68;;;1.23;;
66298;SDS011;53098;47.658;8.578;2022-09-09T10:04:20;5.88;;;0.93;;
66298;SDS011;53098;47.658;8.578;2022-09-09T10:06:46;4.13;;;1.08;;
66298;SDS011;53098;47.658;8.578;2022-09-09T10:09:24;5.55;;;0.70;;
66298;SDS011;53098;47.658;8.578;2022-09-09T10:11:54;4.30;;;0.77;;
66298;SDS011;53098;47.658;8.578;2022-09-09T10:14:21;4.85;;;0.90;;
66298;SDS011;53098;47.658;8.578;2022-09-09T10:16:58;2.67;;;0.70;;
66298;SDS011;53098;47.658;8.578;2022-09-09T10:19:35;6.50;;;1.13;;
66298;SDS011;53098;47.658;8.578;2022-09-09T10:29:59;3.38;;;0.90;;
66298;SDS011;53098;47.658;8.578;2022-09-09T10:37:33;6.22;;;0.90;;
66298;SDS011;53098;47.658;8.578;2022-09-09T10:42:45;5.22;;;0.85;;
66298;SDS011;53098;47.658;8.578;2022-09-09T10:45:21;5.20;;;0.90;;
66298;SDS011;53098;47.658;8.578;2022-09-09T10:50:40;5.68;;;1.10;;
66298;SDS011;53098;47.658;8.578;2022-09-09T10:53:25;5.75;;;1.13;;
66298;SDS011;53098;47.658;8.578;2022-09-09T10:55:56;5.00;;;0.85;;
66298;SDS011;53098;47.658;8.578;2022-09-09T10:58:25;4.15;;;0.98;;
66298;SDS011;53098;47.658;8.578;2022-09-09T11:00:53;3.83;;;1.00;;
66298;SDS011;53098;47.658;8.578;2022-09-09T11:03:25;4.20;;;0.88;;
66298;SDS011;53098;47.658;8.578;2022-09-09T11:05:51;3.28;;;0.68;;
66298;SDS011;53098;47.658;8.578;2022-09-09T11:08:19;4.95;;;0.93;;
66298;SDS011;53098;47.658;8.578;2022-09-09T11:10:45;6.68;;;1.05;;
66298;SDS011;53098;47.658;8.578;2022-09-09T11:18:49;6.07;;;0.85;;
66298;SDS011;53098;47.658;8.578;2022-09-09T11:21:17;7.53;;;1.15;;
66298;SDS011;53098;47.658;8.578;2022-09-09T11:23:48;4.90;;;0.68;;
66298;SDS011;53098;47.658;8.578;2022-09-09T11:26:29;5.72;;;1.00;;
66298;SDS011;53098;47.658;8.578;2022-09-09T11:34:18;6.20;;;1.30;;
66298;SDS011;53098;47.658;8.578;2022-09-09T11:42:13;4.83;;;0.90;;
66298;SDS011;53098;47.658;8.578;2022-09-09T11:44:40;6.72;;;1.02;;
66298;SDS011;53098;47.658;8.578;2022-09-09T11:47:26;6.53;;;1.02;;
66298;SDS011;53098;47.658;8.578;2022-09-09T11:49:52;5.55;;;1.10;;
66298;SDS011;53098;47.658;8.578;2022-09-09T11:54:46;3.83;;;0.88;;
66298;SDS011;53098;47.658;8.578;2022-09-09T11:57:31;3.58;;;1.00;;
66298;SDS011;53098;47.658;8.578;2022-09-09T11:59:57;4.97;;;0.70;;
66298;SDS011;53098;47.658;8.578;2022-09-09T12:02:23;6.57;;;1.20;;
66298;SDS011;53098;47.658;8.578;2022-09-09T12:04:53;3.03;;;0.80;;
66298;SDS011;53098;47.658;8.578;2022-09-09T12:07:28;5.10;;;1.17;;
66298;SDS011;53098;47.658;8.578;2022-09-09T12:10:04;5.93;;;1.00;;
66298;SDS011;53098;47.658;8.578;2022-09-09T12:12:37;4.60;;;1.05;;
66298;SDS011;53098;47.658;8.578;2022-09-09T12:15:25;4.97;;;0.90;;
66298;SDS011;53098;47.658;8.578;2022-09-09T12:17:49;6.82;;;1.20;;
66298;SDS011;53098;47.658;8.578;2022-09-09T12:25:20;6.65;;;0.98;;
66298;SDS011;53098;47.658;8.578;2022-09-09T12:30:19;4.70;;;0.90;;
66298;SDS011;53098;47.658;8.578;2022-09-09T12:32:45;5.38;;;0.98;;
66298;SDS011;53098;47.658;8.578;2022-09-09T12:35:20;6.38;;;0.80;;
66298;SDS011;53098;47.658;8.578;2022-09-09T12:37:54;6.38;;;1.25;;
66298;SDS011;53098;47.658;8.578;2022-09-09T12:40:38;3.53;;;0.60;;
66298;SDS011;53098;47.658;8.578;2022-09-09T12:43:20;6.68;;;0.60;;
66298;SDS011;53098;47.658;8.578;2022-09-09T12:45:46;6.03;;;0.82;;
66298;SDS011;53098;47.658;8.578;2022-09-09T12:48:11;2.20;;;0.38;;
66298;SDS011;53098;47.658;8.578;2022-09-09T12:50:38;6.45;;;0.73;;
66298;SDS011;53098;47.658;8.578;2022-09-09T12:53:10;3.65;;;0.88;;
66298;SDS011;53098;47.658;8.578;2022-09-09T12:55:36;1.30;;;0.50;;
66298;SDS011;53098;47.658;8.578;2022-09-09T12:58:02;1.50;;;0.40;;
66298;SDS011;53098;47.658;8.578;2022-09-09T13:00:28;4.97;;;0.60;;
66298;SDS011;53098;47.658;8.578;2022-09-09T13:02:54;2.73;;;0.67;;
66298;SDS011;53098;47.658;8.578;2022-09-09T13:05:22;3.22;;;0.60;;
66298;SDS011;53098;47.658;8.578;2022-09-09T13:07:47;3.65;;;0.70;;
66298;SDS011;53098;47.658;8.578;2022-09-09T13:10:13;3.00;;;0.65;;
66298;SDS011;53098;47.658;8.578;2022-09-09T13:12:39;2.83;;;0.50;;
66298;SDS011;53098;47.658;8.578;2022-09-09T13:15:09;3.28;;;0.70;;
66298;SDS011;53098;47.658;8.578;2022-09-09T13:17:35;3.28;;;0.50;;
66298;SDS011;53098;47.658;8.578;2022-09-09T13:20:01;6.60;;;0.73;;
66298;SDS011;53098;47.658;8.578;2022-09-09T13:25:05;2.65;;;0.50;;
66298;SDS011;53098;47.658;8.578;2022-09-09T13:29:56;4.20;;;0.60;;
66298;SDS011;53098;47.658;8.578;2022-09-09T13:32:22;3.10;;;0.80;;
66298;SDS011;53098;47.658;8.578;2022-09-09T13:34:52;3.95;;;0.68;;
66298;SDS011;53098;47.658;8.578;2022-09-09T13:37:22;1.75;;;0.50;;
66298;SDS011;53098;47.658;8.578;2022-09-09T13:42:26;2.57;;;0.40;;
66298;SDS011;53098;47.658;8.578;2022-09-09T13:44:52;5.80;;;0.60;;
66298;SDS011;53098;47.658;8.578;2022-09-09T13:47:31;3.85;;;0.75;;
66298;SDS011;53098;47.658;8.578;2022-09-09T13:49:57;3.78;;;0.75;;
66298;SDS011;53098;47.658;8.578;2022-09-09T13:52:22;2.83;;;0.67;;
66298;SDS011;53098;47.658;8.578;2022-09-09T13:54:48;2.70;;;0.77;;
66298;SDS011;53098;47.658;8.578;2022-09-09T13:57:15;1.95;;;0.50;;
66298;SDS011;53098;47.658;8.578;2022-09-09T13:59:41;2.83;;;0.55;;
66298;SDS011;53098;47.658;8.578;2022-09-09T14:02:06;4.60;;;0.60;;
66298;SDS011;53098;47.658;8.578;2022-09-09T14:04:32;5.47;;;0.60;;
66298;SDS011;53098;47.658;8.578;2022-09-09T14:06:57;4.17;;;0.70;;
66298;SDS011;53098;47.658;8.578;2022-09-09T14:09:22;3.30;;;0.70;;
66298;SDS011;53098;47.658;8.578;2022-09-09T14:11:48;4.60;;;0.60;;
66298;SDS011;53098;47.658;8.578;2022-09-09T14:14:13;4.10;;;0.70;;
66298;SDS011;53098;47.658;8.578;2022-09-09T14:16:38;8.13;;;1.07;;
66298;SDS011;53098;47.658;8.578;2022-09-09T14:19:04;2.80;;;0.57;;
66298;SDS011;53098;47.658;8.578;2022-09-09T14:21:29;6.18;;;0.80;;
66298;SDS011;53098;47.658;8.578;2022-09-09T14:23:54;5.75;;;0.43;;
66298;SDS011;53098;47.658;8.578;2022-09-09T14:26:20;7.00;;;0.63;;
66298;SDS011;53098;47.658;8.578;2022-09-09T14:28:46;3.00;;;0.40;;
66298;SDS011;53098;47.658;8.578;2022-09-09T14:31:11;3.50;;;0.77;;
66298;SDS011;53098;47.658;8.578;2022-09-09T14:33:37;8.43;;;0.70;;
66298;SDS011;53098;47.658;8.578;2022-09-09T14:36:03;2.00;;;0.40;;
66298;SDS011;53098;47.658;8.578;2022-09-09T14:38:29;3.53;;;0.45;;
66298;SDS011;53098;47.658;8.578;2022-09-09T14:40:54;3.38;;;0.75;;
66298;SDS011;53098;47.658;8.578;2022-09-09T14:43:20;2.33;;;0.37;;
66298;SDS011;53098;47.658;8.578;2022-09-09T14:45:45;2.93;;;0.63;;
66298;SDS011;53098;47.658;8.578;2022-09-09T14:48:11;2.25;;;0.55;;
66298;SDS011;53098;47.658;8.578;2022-09-09T14:50:36;2.33;;;0.30;;
66298;SDS011;53098;47.658;8.578;2022-09-09T14:53:01;1.67;;;0.37;;
66298;SDS011;53098;47.658;8.578;2022-09-09T14:55:26;2.13;;;0.40;;
66298;SDS011;53098;47.658;8.578;2022-09-09T14:57:52;0.60;;;0.20;;
66298;SDS011;53098;47.658;8.578;2022-09-09T15:00:17;1.50;;;0.43;;
66298;SDS011;53098;47.658;8.578;2022-09-09T15:02:42;2.20;;;0.32;;
66298;SDS011;53098;47.658;8.578;2022-09-09T15:05:08;1.97;;;0.30;;
66298;SDS011;53098;47.658;8.578;2022-09-09T15:07:33;3.20;;;0.40;;
66298;SDS011;53098;47.658;8.578;2022-09-09T15:09:58;2.30;;;0.50;;
66298;SDS011;53098;47.658;8.578;2022-09-09T15:12:24;2.10;;;0.23;;
66298;SDS011;53098;47.658;8.578;2022-09-09T15:14:49;3.88;;;0.40;;
66298;SDS011;53098;47.658;8.578;2022-09-09T15:17:14;3.67;;;0.50;;
66298;SDS011;53098;47.658;8.578;2022-09-09T15:19:40;1.65;;;0.40;;
66298;SDS011;53098;47.658;8.578;2022-09-09T15:22:05;1.13;;;0.40;;
66298;SDS011;53098;47.658;8.578;2022-09-09T15:24:31;2.65;;;0.40;;
66298;SDS011;53098;47.658;8.578;2022-09-09T15:26:57;1.83;;;0.30;;
66298;SDS011;53098;47.658;8.578;2022-09-09T15:29:22;3.55;;;0.50;;
66298;SDS011;53098;47.658;8.578;2022-09-09T15:31:48;2.67;;;0.50;;
66298;SDS011;53098;47.658;8.578;2022-09-09T15:34:13;3.33;;;0.50;;
66298;SDS011;53098;47.658;8.578;2022-09-09T15:36:39;5.13;;;0.93;;
66298;SDS011;53098;47.658;8.578;2022-09-09T15:39:08;5.32;;;0.50;;
66298;SDS011;53098;47.658;8.578;2022-09-09T15:41:34;2.30;;;0.47;;
66298;SDS011;53098;47.658;8.578;2022-09-09T15:43:59;4.40;;;1.13;;
66298;SDS011;53098;47.658;8.578;2022-09-09T15:48:56;5.18;;;1.00;;
66298;SDS011;53098;47.658;8.578;2022-09-09T15:51:22;7.50;;;0.95;;
66298;SDS011;53098;47.658;8.578;2022-09-09T15:53:48;3.47;;;0.98;;
66298;SDS011;53098;47.658;8.578;2022-09-09T15:56:13;4.15;;;0.98;;
66298;SDS011;53098;47.658;8.578;2022-09-09T15:58:39;2.33;;;0.60;;
66298;SDS011;53098;47.658;8.578;2022-09-09T16:01:08;5.37;;;1.33;;
66298;SDS011;53098;47.658;8.578;2022-09-09T16:03:36;1.60;;;0.38;;
66298;SDS011;53098;47.658;8.578;2022-09-09T16:06:02;4.50;;;0.47;;
66298;SDS011;53098;47.658;8.578;2022-09-09T16:08:34;3.38;;;0.57;;
66298;SDS011;53098;47.658;8.578;2022-09-09T16:13:32;2.15;;;0.40;;
66298;SDS011;53098;47.658;8.578;2022-09-09T16:15:58;3.53;;;0.35;;
66298;SDS011;53098;47.658;8.578;2022-09-09T16:18:23;4.03;;;0.60;;
66298;SDS011;53098;47.658;8.578;2022-09-09T16:20:57;3.77;;;0.57;;
66298;SDS011;53098;47.658;8.578;2022-09-09T16:23:23;3.05;;;0.50;;
66298;SDS011;53098;47.658;8.578;2022-09-09T16:25:54;2.00;;;0.43;;
66298;SDS011;53098;47.658;8.578;2022-09-09T16:28:20;2.88;;;0.52;;
66298;SDS011;53098;47.658;8.578;2022-09-09T16:30:45;2.50;;;0.47;;
66298;SDS011;53098;47.658;8.578;2022-09-09T16:33:11;2.42;;;0.40;;
66298;SDS011;53098;47.658;8.578;2022-09-09T16:35:36;5.27;;;0.67;;
66298;SDS011;53098;47.658;8.578;2022-09-09T16:38:02;4.25;;;0.70;;
66298;SDS011;53098;47.658;8.578;2022-09-09T16:40:27;2.63;;;0.43;;
66298;SDS011;53098;47.658;8.578;2022-09-09T16:42:52;6.33;;;0.93;;
66298;SDS011;53098;47.658;8.578;2022-09-09T16:45:18;3.60;;;0.50;;
66298;SDS011;53098;47.658;8.578;2022-09-09T16:47:43;1.47;;;0.43;;
66298;SDS011;53098;47.658;8.578;2022-09-09T16:50:08;2.90;;;0.43;;
66298;SDS011;53098;47.658;8.578;2022-09-09T16:52:34;3.97;;;0.75;;